地図

経路データ

SID SEASON NUMBER BASIN SUBBASIN NAME ISO_TIME NATURE LAT LON WMO_WIND WMO_PRES WMO_AGENCY TRACK_TYPE DIST2LAND LANDFALL IFLAG USA_AGENCY USA_ATCF_ID USA_LAT USA_LON USA_RECORD USA_STATUS USA_WIND USA_PRES USA_SSHS USA_R34_NE USA_R34_SE USA_R34_SW USA_R34_NW USA_R50_NE USA_R50_SE USA_R50_SW USA_R50_NW USA_R64_NE USA_R64_SE USA_R64_SW USA_R64_NW USA_POCI USA_ROCI USA_RMW USA_EYE TOKYO_LAT TOKYO_LON TOKYO_GRADE TOKYO_WIND TOKYO_PRES TOKYO_R50_DIR TOKYO_R50_LONG TOKYO_R50_SHORT TOKYO_R30_DIR TOKYO_R30_LONG TOKYO_R30_SHORT TOKYO_LAND CMA_LAT CMA_LON CMA_CAT CMA_WIND CMA_PRES HKO_LAT HKO_LON HKO_CAT HKO_WIND HKO_PRES NEWDELHI_LAT NEWDELHI_LON NEWDELHI_GRADE NEWDELHI_WIND NEWDELHI_PRES NEWDELHI_CI NEWDELHI_DP NEWDELHI_POCI REUNION_LAT REUNION_LON REUNION_TYPE REUNION_WIND REUNION_PRES REUNION_TNUM REUNION_CI REUNION_RMW REUNION_R34_NE REUNION_R34_SE REUNION_R34_SW REUNION_R34_NW REUNION_R50_NE REUNION_R50_SE REUNION_R50_SW REUNION_R50_NW REUNION_R64_NE REUNION_R64_SE REUNION_R64_SW REUNION_R64_NW BOM_LAT BOM_LON BOM_TYPE BOM_WIND BOM_PRES BOM_TNUM BOM_CI BOM_RMW BOM_R34_NE BOM_R34_SE BOM_R34_SW BOM_R34_NW BOM_R50_NE BOM_R50_SE BOM_R50_SW BOM_R50_NW BOM_R64_NE BOM_R64_SE BOM_R64_SW BOM_R64_NW BOM_ROCI BOM_POCI BOM_EYE BOM_POS_METHOD BOM_PRES_METHOD NADI_LAT NADI_LON NADI_CAT NADI_WIND NADI_PRES WELLINGTON_LAT WELLINGTON_LON WELLINGTON_WIND WELLINGTON_PRES DS824_LAT DS824_LON DS824_STAGE DS824_WIND DS824_PRES TD9636_LAT TD9636_LON TD9636_STAGE TD9636_WIND TD9636_PRES TD9635_LAT TD9635_LON TD9635_WIND TD9635_PRES TD9635_ROCI NEUMANN_LAT NEUMANN_LON NEUMANN_CLASS NEUMANN_WIND NEUMANN_PRES MLC_LAT MLC_LON MLC_CLASS MLC_WIND MLC_PRES USA_GUST BOM_GUST BOM_GUST_PER REUNION_GUST REUNION_GUST_PER USA_SEAHGT USA_SEARAD_NE USA_SEARAD_SE USA_SEARAD_SW USA_SEARAD_NW STORM_SPEED STORM_DIR
1970304S09087 1971 140 SI MM ANDREA:CLAUDINE 1970-10-31 00:00:00 NR -9.00000 87.0000 1006 bom main 1551 1541 ______O_______ -1 -9.00000 87.0000 1006 2 90
1970304S09087 1971 140 SI MM ANDREA:CLAUDINE 1970-10-31 03:00:00 NR -9.00000 87.1000 1006 bom main 1541 1541 ______O_______ -1 -9.00000 87.1000 1006 2 117
1970304S09087 1971 140 SI MM ANDREA:CLAUDINE 1970-10-31 06:00:00 TS -9.07500 87.1500 1006 bom main 1538 1538 ______O__O____ -1 -9.10000 87.2000 1006 -9.00000 87.0000 TC 15 1006 2 123
1970304S09087 1971 140 SI MM ANDREA:CLAUDINE 1970-10-31 09:00:00 TS -9.08334 87.2342 1006 bom main 1538 1528 ______O__P____ -1 -9.10000 87.3000 1006 -9.05001 87.1025 TC 15 1006 2 117
1970304S09087 1971 140 SI MM ANDREA:CLAUDINE 1970-10-31 12:00:00 TS -9.15714 87.3143 1006 bom main 1534 1525 ______O__O____ -1 -9.20000 87.4000 1006 -9.10000 87.2000 TC 15 1006 2 132
1970304S09087 1971 140 SI MM ANDREA:CLAUDINE 1970-10-31 15:00:00 TS -9.22499 87.3963 1006 bom main 1525 1516 ______O__P____ -1 -9.30000 87.5000 1006 -9.14999 87.2925 TC 15 1006 3 112
1970304S09087 1971 140 SI MM ANDREA:CLAUDINE 1970-10-31 18:00:00 TS -9.25000 87.5500 1006 bom main 1507 1504 ______O__O____ -1 -9.30000 87.7000 1006 -9.20000 87.4000 TC 15 1006 3 107
1970304S09087 1971 140 SI MM ANDREA:CLAUDINE 1970-10-31 21:00:00 TS -9.32125 87.7213 1006 bom main 1504 1495 ______O__P____ -1 -9.40000 87.9000 1006 -9.24250 87.5425 TC 15 1006 3 117
1970304S09087 1971 140 SI MM ANDREA:CLAUDINE 1970-11-01 00:00:00 TS -9.40000 87.8500 1006 bom main 1492 1489 ______O__O____ -1 -9.50000 88.0000 1006 -9.30000 87.7000 TC 15 1006 3 120
1970304S09087 1971 140 SI MM ANDREA:CLAUDINE 1970-11-01 03:00:00 TS -9.49624 88.0213 1006 bom main 1489 1478 ______O__P____ -1 -9.60000 88.2000 1006 -9.39248 87.8425 TC 15 1006 4 120
1970304S09087 1971 140 SI MM ANDREA:CLAUDINE 1970-11-01 06:00:00 TS -9.60000 88.2000 1005 bom main 1478 1467 ______O__O____ -1 -9.70000 88.4000 1005 -9.50000 88.0000 TC 15 1006 4 119
1970304S09087 1971 140 SI MM ANDREA:CLAUDINE 1970-11-01 09:00:00 TS -9.69624 88.3925 1005 bom main 1467 1456 ______O__P____ -1 -9.80000 88.6000 1005 -9.59249 88.1850 TC 17 1005 5 119
1970304S09087 1971 140 SI MM ANDREA:CLAUDINE 1970-11-01 12:00:00 TS -9.85000 88.6500 1004 bom main 1448 1446 ______O__O____ -1 -10.0000 88.9000 1004 -9.70000 88.4000 TC 20 1005 5 123
1970304S09087 1971 140 SI MM ANDREA:CLAUDINE 1970-11-01 15:00:00 TS -9.97501 88.8287 1003 bom main 1453 1436 ______O__P____ -1 -10.1000 89.0000 1003 -9.85003 88.6575 TC 20 1004 5 122
1970304S09087 1971 140 SI MM ANDREA:CLAUDINE 1970-11-01 18:00:00 TS -10.1000 89.0500 1003 bom main 1435 1434 ______O__O____ -1 -10.2000 89.2000 1003 -10.0000 88.9000 TC 20 1004 5 120
1970304S09087 1971 140 SI MM ANDREA:CLAUDINE 1970-11-01 21:00:00 TS -10.2000 89.2325 1002 bom main 1434 1426 ______O__P____ -1 -10.3000 89.4000 1002 -10.1000 89.0650 TC 22 1003 4 130
1970304S09087 1971 140 SI MM ANDREA:CLAUDINE 1970-11-02 00:00:00 TS -10.3500 89.3500 1002 bom main 1425 1433 ______O__O____ -1 -10.5000 89.5000 1002 -10.2000 89.2000 TC 25 1003 4 148
1970304S09087 1971 140 SI MM ANDREA:CLAUDINE 1970-11-02 03:00:00 TS -10.5175 89.4362 1002 bom main 1440 1440 ______O__P____ -1 -10.7000 89.5000 1002 -10.3350 89.3725 TC 25 1002 4 157
1970304S09087 1971 140 SI MM ANDREA:CLAUDINE 1970-11-02 06:00:00 TS -10.7000 89.5000 1002 bom main 1447 1447 ______O__O____ -1 -10.9000 89.5000 1002 -10.5000 89.5000 TC 25 1002 4 161
1970304S09087 1971 140 SI MM ANDREA:CLAUDINE 1970-11-02 09:00:00 TS -10.8537 89.5575 1002 bom main 1455 1455 ______O__P____ -1 -11.0000 89.6000 1002 -10.7075 89.5150 TC 25 1002 3 171
1970304S09087 1971 140 SI MM ANDREA:CLAUDINE 1970-11-02 12:00:00 TS -11.0000 89.5500 1001 bom main 1463 1463 ______O__O____ -1 -11.1000 89.6000 1001 -10.9000 89.5000 TC 25 1002 3 168
1970304S09087 1971 140 SI MM ANDREA:CLAUDINE 1970-11-02 15:00:00 TS -11.1075 89.6175 1001 bom main 1471 1463 ______O__P____ -1 -11.2000 89.7000 1001 -11.0150 89.5350 TC 27 1001 2 143
1970304S09087 1971 140 SI MM ANDREA:CLAUDINE 1970-11-02 18:00:00 TS -11.2000 89.7000 1001 bom main 1471 1471 ______O__O____ -1 -11.3000 89.8000 1001 -11.1000 89.6000 TC 30 1001 2 145
1970304S09087 1971 140 SI MM ANDREA:CLAUDINE 1970-11-02 21:00:00 TS -11.3000 89.7537 1000 bom main 1472 1472 ______O__P____ -1 -11.4000 89.8000 1000 -11.2000 89.7075 TC 30 1001 2 153
1970304S09087 1971 140 SI MM ANDREA:CLAUDINE 1970-11-03 00:00:00 TS -11.4000 89.8000 1000 bom main 1480 1480 ______O__O____ -1 -11.5000 89.8000 1000 -11.3000 89.8000 TC 30 1001 2 163
1970304S09087 1971 140 SI MM ANDREA:CLAUDINE 1970-11-03 03:00:00 TS -11.5000 89.8075 999 bom main 1488 1488 ______O__P____ -1 -11.6000 89.8000 999 -11.4000 89.8150 TC 30 1000 2 172
1970304S09087 1971 140 SI MM ANDREA:CLAUDINE 1970-11-03 06:00:00 TS -11.6000 89.8000 999 bom main 1496 1496 ______O__O____ -1 -11.7000 89.8000 999 -11.5000 89.8000 TC 30 1000 2 185
1970304S09087 1971 140 SI MM ANDREA:CLAUDINE 1970-11-03 09:00:00 TS -11.7463 89.8000 998 bom main 1504 1504 ______O__P____ -1 -11.9000 89.8000 998 -11.5925 89.8000 TC 30 999 3 178
1970304S09087 1971 140 SI MM ANDREA:CLAUDINE 1970-11-03 12:00:00 TS -11.8500 89.8000 998 bom main 1513 1521 ______O__O____ -1 -12.0000 89.8000 998 -11.7000 89.8000 TC 30 999 2 0
1970304S09087 1971 140 SI MM ANDREA:CLAUDINE 1970-11-03 15:00:00 TS -11.9713 89.8000 997 bom main 1529 1529 ______O__P____ -1 -12.1000 89.8000 997 -11.8425 89.8000 TC 32 998 3 0
1970304S09087 1971 140 SI MM ANDREA:CLAUDINE 1970-11-03 18:00:00 TS -12.1500 89.8000 996 bom main 1538 1538 ______O__O____ -1 -12.3000 89.8000 996 -12.0000 89.8000 TC 35 998 3 178
1970304S09087 1971 140 SI MM ANDREA:CLAUDINE 1970-11-03 21:00:00 TS -12.2750 89.8000 996 bom main 1554 1554 ______O__P____ -1 -12.4000 89.8000 996 -12.1500 89.8000 TC 35 997 3 0
1970304S09087 1971 140 SI MM ANDREA:CLAUDINE 1970-11-04 00:00:00 TS -12.4500 89.8000 995 bom main 1563 1571 ______O__O____ -1 -12.6000 89.8000 995 -12.3000 89.8000 TC 35 996 3 187
1970304S09087 1971 140 SI MM ANDREA:CLAUDINE 1970-11-04 03:00:00 TS -12.6175 89.7575 995 bom main 1580 1580 ______O__P____ -1 -12.8000 89.7000 995 -12.4350 89.8150 TC 37 995 4 193
1970304S09087 1971 140 SI MM ANDREA:CLAUDINE 1970-11-04 06:00:00 TS -12.8500 89.7000 995 bom main 1604 1613 ______O__O____ -1 -13.1000 89.6000 995 -12.6000 89.8000 TC 40 995 5 201
1970304S09087 1971 140 SI MM ANDREA:CLAUDINE 1970-11-04 09:00:00 TS -13.1175 89.5612 995 bom main 1637 1637 ______O__P____ -1 -13.4000 89.4000 995 -12.8350 89.7225 TC 40 995 6 206
1970304S09087 1971 140 SI MM ANDREA:CLAUDINE 1970-11-04 12:00:00 TS -13.3500 89.4500 995 bom main 1661 1677 ______O__O____ -1 -13.6000 89.3000 995 -13.1000 89.6000 TC 40 995 5 211
1970304S09087 1971 140 SI MM ANDREA:CLAUDINE 1970-11-04 15:00:00 TS -13.5788 89.2787 995 bom main 1701 1701 ______O__P____ -1 -13.8000 89.1000 995 -13.3575 89.4575 TC 40 995 5 213
1970304S09087 1971 140 SI MM ANDREA:CLAUDINE 1970-11-04 18:00:00 TS -13.8000 89.1500 994 bom main 1725 1725 ______O__O____ -1 -14.0000 89.0000 994 -13.6000 89.3000 TC 40 995 5 210
1970304S09087 1971 140 SI MM ANDREA:CLAUDINE 1970-11-04 21:00:00 TS -14.0075 89.0250 994 bom main 1756 1756 ______O__P____ -1 -14.2000 88.9000 994 -13.8150 89.1500 TC 40 994 5 220
1970304S09087 1971 140 SI MM ANDREA:CLAUDINE 1970-11-05 00:00:00 TS -14.1500 88.8500 994 bom main 1771 1778 ______O__O____ -1 -14.3000 88.7000 994 -14.0000 89.0000 TC 40 994 3 197
1970304S09087 1971 140 SI MM ANDREA:CLAUDINE 1970-11-05 03:00:00 TS -14.2825 88.9301 991 bom main 1789 1756 ______O__P____ -1 -14.4000 89.1000 991 -14.1649 88.7601 TC 40 994 5 102
1970304S09087 1971 140 SI MM ANDREA:CLAUDINE 1970-11-05 06:00:00 TS -14.2636 89.3818 988 bom main 1756 1736 O_____O__OO___ jtwc_sh SH021971 -13.9000 90.0000 -1 -14.5000 89.6000 988 -14.3000 88.7000 TC 40 994 -13.9000 90.0000 2 8 93
1970304S09087 1971 140 SI MM ANDREA:CLAUDINE 1970-11-05 09:00:00 TS -14.3307 89.7614 985 bom main 1730 1714 P_____O__PP___ SH021971 -14.0975 90.1049 -1 -14.6000 90.0000 985 -14.3999 89.0226 TC 45 991 -14.1203 90.0749 2 9 104
1970304S09087 1971 140 SI WA ANDREA:CLAUDINE 1970-11-05 12:00:00 TS -14.4704 90.2400 982 bom main 1723 1711 O_____O__OP___ jtwc_sh SH021971 -14.3000 90.2000 -1 -14.8000 91.0000 982 -14.5000 89.6000 TC 50 988 -14.3324 90.1600 2 7 115
1970304S09087 1971 140 SI WA ANDREA:CLAUDINE 1970-11-05 15:00:00 TS -14.6358 90.4405 979 bom main 1720 1714 P_____O__PP___ SH021971 -14.5075 90.2850 -1 -15.0000 91.0000 979 -14.6357 90.3673 TC 52 985 -14.5284 90.2650 2 5 132
1970304S09087 1971 140 SI WA ANDREA:CLAUDINE 1970-11-05 18:00:00 TS -14.8200 90.6400 976 bom main 1727 1721 O_____O__OO___ jtwc_sh SH021971 -14.7000 90.4000 -1 -15.2000 91.0000 976 -14.8000 91.0000 TC 55 982 -14.7000 90.4000 2 6 130
1970304S09087 1971 140 SI WA ANDREA:CLAUDINE 1970-11-05 21:00:00 TS -14.9944 90.8895 973 bom main 1729 1722 P_____O__PP___ SH021971 -14.8650 90.5925 -1 -15.4000 91.7000 973 -14.9993 90.9930 TC 60 979 -14.8426 90.5697 2 6 121
1970304S09087 1971 140 SI WA ANDREA:CLAUDINE 1970-11-06 00:00:00 TS -15.1330 91.1715 970 bom main 1722 1721 O_____O__OP___ jtwc_sh SH021971 -15.0000 90.8000 -1 -15.5000 92.5000 970 -15.2000 91.0000 TC 65 976 -14.9651 90.7575 2 6 117
1970304S09087 1971 140 SI WA ANDREA:CLAUDINE 1970-11-06 03:00:00 TS -15.2493 91.4102 972 bom main 1721 1721 P_____O__PP___ SH021971 -15.1000 90.9725 -1 -15.6000 92.4000 972 -15.3663 91.7646 TC 67 973 -15.0801 90.9416 2 5 118
1970304S09087 1971 140 SI WA ANDREA:CLAUDINE 1970-11-06 06:00:00 TS -15.3600 91.6200 974 bom main 1731 1725 O_____O__OO___ jtwc_sh SH021971 -15.2000 91.1000 -1 -15.7000 92.3000 974 -15.5000 92.5000 TC 70 970 -15.2000 91.1000 2 3 136
1970304S09087 1971 140 SI WA ANDREA:CLAUDINE 1970-11-06 09:00:00 TS -15.4871 91.6508 975 bom main 1733 1733 P_____O__PP___ SH021971 -15.3425 91.1575 -1 -15.8000 92.2000 975 -15.5996 92.5352 TC 67 972 -15.3509 91.2038 2 3 185
1970304S09087 1971 140 SI WA ANDREA:CLAUDINE 1970-11-06 12:00:00 TS -15.6415 91.5960 976 bom main 1749 1749 O_____O__OP___ jtwc_sh SH021971 -15.5000 91.2000 -1 -16.0000 92.0000 976 -15.7000 92.3000 TC 65 974 -15.5074 91.2801 2 3 191
1970304S09087 1971 140 SI WA ANDREA:CLAUDINE 1970-11-06 15:00:00 TS -15.7851 91.5998 977 bom main 1765 1765 P_____O__PP___ SH021971 -15.6575 91.3000 -1 -16.1000 91.9000 977 -15.8500 92.1575 TC 65 975 -15.6603 91.3413 2 3 185
1970304S09087 1971 140 SI WA ANDREA:CLAUDINE 1970-11-06 18:00:00 TS -15.9200 91.5800 978 bom main 1773 1773 O_____O__OO___ jtwc_sh SH021971 -15.8000 91.4000 -1 -16.2000 91.7000 978 -16.0000 92.0000 TC 65 976 -15.8000 91.4000 2 2 189
1970304S09087 1971 140 SI WA ANDREA:CLAUDINE 1970-11-06 21:00:00 TS -16.0226 91.5676 979 bom main 1782 1782 P_____O__PP___ SH021971 -15.9075 91.4500 -1 -16.3000 91.6000 979 -16.1000 91.8425 TC 62 977 -15.8981 91.4953 2 2 0
1970304S09087 1971 140 SI WA ANDREA:CLAUDINE 1970-11-07 00:00:00 TS -16.1370 91.5575 980 bom main 1790 1790 O_____O__OP___ jtwc_sh SH021971 -16.0000 91.5000 -1 -16.5000 91.5000 980 -16.2000 91.7000 TC 60 978 -15.9850 91.5874 2 2 189
1970304S09087 1971 140 SI WA ANDREA:CLAUDINE 1970-11-07 03:00:00 TS -16.2569 91.5381 982 bom main 1814 1814 P_____O__PP___ SH021971 -16.0850 91.6075 -1 -16.7000 91.2000 982 -16.3349 91.6149 TC 60 979 -16.0794 91.6609 2 3 188
1970304S09087 1971 140 SI WA ANDREA:CLAUDINE 1970-11-07 06:00:00 TS -16.4000 91.5200 984 bom main 1822 1822 O_____O__OO___ jtwc_sh SH021971 -16.2000 91.7000 -1 -16.9000 91.0000 984 -16.5000 91.5000 TC 60 980 -16.2000 91.7000 2 4 194
1970304S09087 1971 140 SI WA ANDREA:CLAUDINE 1970-11-07 09:00:00 TS -16.6061 91.4438 986 bom main 1846 1846 P_____O__PP___ SH021971 -16.3850 91.7300 -1 -17.2000 90.8000 986 -16.6851 91.2650 TC 57 982 -16.3753 91.6941 2 5 203
1970304S09087 1971 140 SI WA ANDREA:CLAUDINE 1970-11-07 12:00:00 TS -16.8155 91.3305 988 bom main 1870 1870 O_____O__OP___ jtwc_sh SH021971 -16.6000 91.7000 -1 -17.4000 90.6000 988 -16.9000 91.0000 TC 55 984 -16.5775 91.6526 2 5 208
1970304S09087 1971 140 SI WA ANDREA:CLAUDINE 1970-11-07 15:00:00 TS -17.0327 91.2015 990 bom main 1894 1894 P_____O__PP___ SH021971 -16.8075 91.6076 -1 -17.6000 90.4000 990 -17.1574 90.8074 TC 52 986 -16.7909 91.5847 2 5 216
1970304S09087 1971 140 SI WA ANDREA:CLAUDINE 1970-11-07 18:00:00 TS -17.2200 91.0200 992 bom main 1924 1924 O_____O__OO___ jtwc_sh SH021971 -17.0000 91.5000 -1 -17.7000 90.0000 992 -17.4000 90.6000 TC 50 988 -17.0000 91.5000 2 4 220
1970304S09087 1971 140 SI WA ANDREA:CLAUDINE 1970-11-07 21:00:00 TS -17.3612 90.9164 994 bom main 1948 1948 P_____O__PP___ SH021971 -17.1500 91.4574 -1 -17.8000 89.9000 994 -17.5651 90.2850 TC 47 990 -17.1411 91.4824 2 4 214
1970304S09087 1971 140 SI WA ANDREA:CLAUDINE 1970-11-08 00:00:00 TS -17.5163 90.8081 998 bom main 1964 1964 O_____O__OP___ jtwc_sh SH021971 -17.3000 91.4000 -1 -18.0000 89.8000 998 -17.7000 90.0000 TC 45 992 -17.2816 91.4406 2 4 217
1970304S09087 1971 140 SI WA ANDREA:CLAUDINE 1970-11-08 03:00:00 TS -17.7017 90.6496 998 bom main 1994 1994 P_____O__PP___ SH021971 -17.4624 91.3022 -1 -18.3000 89.4000 998 -17.8273 89.9147 TC 40 995 -17.4564 91.3287 2 6 221
1970304S09087 1971 140 SI WA ANDREA:CLAUDINE 1970-11-08 06:00:00 TS -17.9400 90.4200 998 bom main 2025 2025 O_____O__OO___ jtwc_sh SH021971 -17.7000 91.1000 -1 -18.6000 89.0000 998 -18.0000 89.8000 TC 35 998 -17.7000 91.1000 2 8 223
1970304S09087 1971 140 SI WA ANDREA:CLAUDINE 1970-11-08 09:00:00 TS -18.2993 90.0644 999 bom main 2080 2080 P_____O__PP___ SH021971 -18.0623 90.7748 -1 -19.0000 88.6000 999 -18.2701 89.4451 TC 35 998 -18.1019 90.7273 2 11 226
1970304S09087 1971 140 SI MM ANDREA:CLAUDINE 1970-11-08 12:00:00 TS -18.6930 89.6065 999 bom main 2148 2148 O_____O__OP___ jtwc_sh SH021971 -18.5000 90.3000 -1 -19.3000 88.2000 999 -18.6000 89.0000 TC 35 998 -18.5649 90.2325 2 12 228
1970304S09087 1971 140 SI MM ANDREA:CLAUDINE 1970-11-08 15:00:00 TS -19.1091 89.1244 999 bom main 2217 2217 P_____O__PP___ SH021971 -18.9800 89.6954 -1 -19.6000 88.0000 999 -18.9650 88.5851 TC 32 998 -19.0204 89.6462 2 12 233
1970304S09087 1971 140 SI MM ANDREA:CLAUDINE 1970-11-08 18:00:00 TS -19.4400 88.5600 999 bom main 2277 2277 O_____O__OO___ jtwc_sh SH021971 -19.4000 89.0000 -1 -19.7000 87.6000 999 -19.3000 88.2000 TC 30 999 -19.4000 89.0000 2 12 242
1970304S09087 1971 140 SI MM ANDREA:CLAUDINE 1970-11-08 21:00:00 TS -19.6786 88.0114 999 bom main 2338 2338 P_____O__PP___ SH021971 -19.6598 88.3072 -1 -19.9000 87.2000 999 -19.5299 87.8848 TC 30 999 -19.6435 88.3579 2 11 249
1970304S09087 1971 140 SI MM ANDREA:CLAUDINE 1970-11-09 00:00:00 TS -19.8199 87.4934 1000 bom main 2376 2376 O_____O__OP___ jtwc_sh SH021971 -19.8000 87.6000 -1 -20.0000 87.0000 1000 -19.7000 87.6000 TC 30 999 -19.7996 87.6670 2 11 258
1970304S09087 1971 140 SI MM ANDREA:CLAUDINE 1970-11-09 03:00:00 TS -19.8900 86.9175 1001 bom main 2420 2420 P_____O__PP___ SH021971 -19.8871 86.9074 -1 -19.9000 86.5000 1001 -19.8948 87.3301 TC 30 999 -19.8808 86.9426 2 11 266
1970304S09087 1971 140 SI MM ANDREA:CLAUDINE 1970-11-09 06:00:00 TS -19.9000 86.3200 1002 bom main 2456 2456 O_____O__OO___ jtwc_sh SH021971 -19.9000 86.2000 -1 -19.8000 86.0000 1002 -20.0000 87.0000 TC 30 1000 -19.9000 86.2000 1 12 272
1970304S09087 1971 140 SI MM ANDREA:CLAUDINE 1970-11-09 09:00:00 TS -19.8550 85.5991 1003 bom main 2499 2490 P_____O__PP___ SH021971 -19.8723 85.4574 -1 -19.7000 85.0000 1003 -19.9367 86.6049 TC 27 1001 -19.8937 85.4759 1 15 278
1970304S09087 1971 140 SI MM ANDREA:CLAUDINE 1970-11-09 12:00:00 TS -19.6875 84.7067 1004 bom main 2539 2539 O____OO__OP_O_ jtwc_sh SH021971 -19.8000 84.7000 -1 -18.9000 83.5000 99 9.90000 -19.6000 84.0000 1004 -19.8000 86.0000 TC 25 1002 -19.8310 84.7367 1 -18.9000 83.5000 TC 40 17 280
1970304S09087 1971 140 SI MM ANDREA:CLAUDINE 1970-11-09 15:00:00 TS -19.5526 83.8091 1005 bom main 2592 2583 P____PO__PP_P_ SH021971 -19.7145 83.9651 -1 -18.9605 82.8876 99 -19.5000 83.0000 1005 -19.7011 85.0374 TC 22 1003 -19.7279 83.9793 1 -18.9605 82.8876 TC 37 16 279
1970304S09087 1971 140 SI MM ANDREA:CLAUDINE 1970-11-09 18:00:00 TS -19.4308 83.0077 1006 bom main 2631 2563 O____OO__OO_O_ jtwc_sh SH021971 -19.6000 83.2000 -1 -19.0000 82.3000 99 9.90000 -19.4000 82.5000 1006 -19.6000 84.0000 TC 20 1004 -19.6000 83.2000 1 -19.0000 82.3000 TC 35 15 279
1970304S09087 1971 140 SI MM ANDREA:CLAUDINE 1970-11-09 21:00:00 TS -19.3103 82.2587 1007 bom main 2563 2491 P____PO__PP_P_ SH021971 -19.4574 82.3575 -1 -19.0072 81.7499 99 -19.3000 82.0000 1007 -19.4917 83.2126 TC 17 1005 -19.4510 82.3835 1 -19.0072 81.7499 TC 35 14 278
1970304S09087 1971 140 SI MM ANDREA:CLAUDINE 1970-11-10 00:00:00 TS -19.2237 81.5109 1008 bom main 2481 2409 O____OO__OP_O_ jtwc_sh SH021971 -19.3000 81.5000 -1 -19.0000 81.2000 99 9.90000 -19.3000 81.0000 1008 -19.4000 82.5000 TC 15 1006 -19.2847 81.5487 1 -19.0000 81.2000 TC 35 14 278
1970304S09087 1971 140 SI MM ANDREA:CLAUDINE 1970-11-10 03:00:00 TS -19.1125 80.7851 1008 bom main 2409 2337 P____PO__PP_P_ SH021971 -19.1347 80.6850 -1 -18.9923 80.6149 99 -18.9000 80.0000 1008 -19.4017 81.7886 TC 15 1007 -19.1260 80.7146 1 -18.9923 80.6149 TC 35 14 279
1970304S09087 1971 140 SI MM ANDREA:CLAUDINE 1970-11-10 06:00:00 TS -19.0125 80.0333 reunion main 2327 2264 O____OO__OO_O_ jtwc_sh SH021971 -19.0000 79.9000 -1 -19.0000 80.0000 3 9.90000 -18.4000 79.0000 1008 -19.3000 81.0000 TC 15 1008 -19.0000 79.9000 1 -19.0000 80.0000 TC 35 14 276
1970304S09087 1971 140 SI MM ANDREA:CLAUDINE 1970-11-10 09:00:00 TS -18.9700 79.3108 main 2254 2181 P____P___PP_P_ SH021971 -18.9271 79.1427 -1 -19.0420 79.3875 3 -18.9341 80.0478 TC 15 1008 -18.9297 79.1252 1 -19.0420 79.3875 TC 35 14 272
1970304S09087 1971 140 SI MM ANDREA:CLAUDINE 1970-11-10 12:00:00 TS -18.9516 78.5373 reunion main 2171 2098 O____O___OP_O_ jtwc_sh SH021971 -18.9000 78.4000 -1 -19.1000 78.7000 99 9.90000 -18.4000 79.0000 TC 15 1008 -18.8959 78.3709 1 -19.1000 78.7000 TC 35 15 269
1970304S09087 1971 140 SI MM ANDREA:CLAUDINE 1970-11-10 15:00:00 TS -18.9977 77.7383 main 2087 2014 P____P____P_P_ SH021971 -18.8923 77.6426 -1 -19.1574 77.8876 99 TC -18.8892 77.6311 1 -19.1574 77.8876 TC 32 15 267
1970304S09087 1971 140 SI MM ANDREA:CLAUDINE 1970-11-10 18:00:00 TS -19.0200 76.9400 reunion main 2004 1931 O____O____O_O_ jtwc_sh SH021971 -18.9000 76.9000 -1 -19.2000 77.0000 99 9.90000 -18.9000 76.9000 1 -19.2000 77.0000 TC 30 15 269
1970304S09087 1971 140 SI MM ANDREA:CLAUDINE 1970-11-10 21:00:00 TS -19.0279 76.1783 main 1931 1847 P____P____P_P_ SH021971 -18.8921 76.1999 -1 -19.2217 76.1376 99 -18.9122 76.2167 1 -19.2217 76.1376 TC 30 15 270
1970304S09087 1971 140 SI MM ANDREA:CLAUDINE 1970-11-11 00:00:00 TS -19.0278 75.3865 reunion main 1847 1764 O____O____P_O_ jtwc_sh SH021971 -18.9000 75.5000 -1 -19.2000 75.2000 99 9.90000 -18.9388 75.5326 1 -19.2000 75.2000 TC 30 16 271
1970304S09087 1971 140 SI MM ANDREA:CLAUDINE 1970-11-11 03:00:00 TS -19.0140 74.5253 main 1754 1670 P____P____P_P_ SH021971 -18.9493 74.7951 -1 -19.1001 74.1145 99 -18.9711 74.8073 1 -19.1001 74.1145 TC 30 17 271
1970304S09087 1971 140 SI MM ANDREA:CLAUDINE 1970-11-11 06:00:00 TS -19.0000 73.6000 reunion main 1660 1566 O____O____O_O_ jtwc_sh SH021971 -19.0000 74.0000 -1 -19.0000 73.0000 2 9.90000 -19.0000 74.0000 1 -19.0000 73.0000 TC 30 18 270
1970304S09087 1971 140 SI MM ANDREA:CLAUDINE 1970-11-11 09:00:00 TS -19.0032 72.6196 main 1556 1462 P____P____P_P_ SH021971 -19.0074 73.0448 -1 -18.9842 71.9853 2 -19.0328 73.0376 1 -18.9842 71.9853 TC 30 19 270
1970304S09087 1971 140 SI MM ANDREA:CLAUDINE 1970-11-11 12:00:00 TS -19.0109 71.5992 reunion main 1451 1347 O____O____P_O_ jtwc_sh SH021971 -19.0000 72.0000 -1 -19.0000 71.0000 99 9.90000 -19.0543 71.9961 1 -19.0000 71.0000 TC 30 19 270
1970304S09087 1971 140 SI MM ANDREA:CLAUDINE 1970-11-11 15:00:00 TS -19.0184 70.5634 main 1347 1243 P____P____P_P_ SH021971 -19.0224 70.9354 -1 -18.9993 70.0075 99 -19.0483 70.9314 1 -18.9993 70.0075 TC 30 19 270
1970304S09087 1971 140 SI MM ANDREA:CLAUDINE 1970-11-11 18:00:00 TS -19.0000 69.5400 reunion main 1233 1141 O____O____O_O_ jtwc_sh SH021971 -19.0000 69.9000 -1 -19.0000 69.0000 99 9.90000 -19.0000 69.9000 1 -19.0000 69.0000 TC 30 19 273
1970304S09087 1971 140 SI MM ANDREA:CLAUDINE 1970-11-11 21:00:00 TS -18.9348 68.5731 main 1141 1050 P____P____P_P_ SH021971 -18.8718 68.9698 -1 -19.0216 67.9804 99 -18.8873 68.9650 1 -19.0216 67.9804 TC 30 18 275
1970304S09087 1971 140 SI MM ANDREA:CLAUDINE 1970-11-12 00:00:00 TS -18.8271 67.6148 reunion main 1040 949 O____O____P_O_ jtwc_sh SH021971 -18.7000 68.1000 -1 -19.0000 66.9000 99 9.90000 -18.7353 68.0742 1 -19.0000 66.9000 TC 30 19 278
1970304S09087 1971 140 SI MM ANDREA:CLAUDINE 1970-11-12 03:00:00 TS -18.6853 66.6002 main 939 852 P____P____P_P_ SH021971 -18.5421 67.2351 -1 -18.8883 65.6548 99 -18.5658 67.2214 1 -18.8883 65.6548 TC 30 19 279
1970304S09087 1971 140 SI MM ANDREA:CLAUDINE 1970-11-12 06:00:00 TS -18.5200 65.6400 reunion main 842 774 O____O____O_O_ jtwc_sh SH021971 -18.4000 66.4000 -1 -18.7000 64.5000 2 9.90000 -18.4000 66.4000 1 -18.7000 64.5000 TC 30 17 281
1970304S09087 1971 140 SI MM ANDREA:CLAUDINE 1970-11-12 09:00:00 TS -18.3575 64.8251 main 764 701 P____P____P_P_ SH021971 -18.2997 65.5853 -1 -18.4487 63.6826 2 -18.2909 65.5895 1 -18.4487 63.6826 TC 30 15 282
1970304S09087 1971 140 SI MM ANDREA:CLAUDINE 1970-11-12 12:00:00 TS -18.1972 64.0814 reunion main 701 637 O____O____P_O_ jtwc_sh SH021971 -18.2000 64.8000 -1 -18.2000 63.0000 99 9.90000 -18.1858 64.8070 1 -18.2000 63.0000 TC 30 14 282
1970304S09087 1971 140 SI MM ANDREA:CLAUDINE 1970-11-12 15:00:00 TS -18.0611 63.3415 main 627 570 P____P____P_P_ SH021971 -18.0646 64.0426 -1 -18.0567 62.2882 99 -18.0629 64.0458 1 -18.0567 62.2882 TC 30 15 282
1970304S09087 1971 140 SI MM ANDREA:CLAUDINE 1970-11-12 18:00:00 TS -17.9000 62.5800 reunion main 570 508 O____O____O_O_ jtwc_sh SH021971 -17.9000 63.3000 -1 -17.9000 61.5000 99 9.90000 -17.9000 63.3000 1 -17.9000 61.5000 TC 30 16 284
1970304S09087 1971 140 SI MM ANDREA:CLAUDINE 1970-11-12 21:00:00 TS -17.6801 61.7450 main 499 452 P____P____P_P_ SH021971 -17.7298 62.5428 -1 -17.6300 60.5374 99 -17.6810 62.5646 1 -17.6300 60.5374 TC 30 17 287
1970304S09087 1971 140 SI MM ANDREA:CLAUDINE 1970-11-13 00:00:00 TS -17.4029 60.8874 reunion main 452 417 O____O____P_O_ jtwc_sh SH021971 -17.5000 61.8000 -1 -17.3000 59.5000 99 9.90000 -17.4147 61.8372 1 -17.3000 59.5000 TC 30 17 291
1970304S09087 1971 140 SI MM ANDREA:CLAUDINE 1970-11-13 03:00:00 TS -17.0757 60.0538 main 420 405 P____P____P_P_ SH021971 -17.1779 61.0893 -1 -16.9532 58.4870 99 -17.1160 61.1163 1 -16.9532 58.4870 TC 27 17 293
1970304S09087 1971 140 SI MM ANDREA:CLAUDINE 1970-11-13 06:00:00 TS -16.7200 59.2400 reunion main 411 O____O____O_O_ jtwc_sh SH021971 -16.8000 60.4000 -1 -16.6000 57.5000 2 9.90000 -16.8000 60.4000 1 -16.6000 57.5000 TC 25 17 295

IBTrACS Databaseについて

本データベースは、米国NOAAが公開する1842年以降の世界の熱帯低気圧のベストトラックデータアーカイブInternational Best Track Archive for Climate Stewardship (IBTrACS)を、ウェブで閲覧しやすい形式に変換したものです。

最終更新日:2021-10-19